createdAt,value
2023-05-25T00:01:03.149Z,79.03
2023-05-25T00:06:05.797Z,78.65
2023-05-25T00:11:07.728Z,78.47
2023-05-25T00:16:09.484Z,78.24
2023-05-25T00:21:11.980Z,78.07
2023-05-25T00:26:13.722Z,78.05
2023-05-25T00:31:15.705Z,77.83
2023-05-25T00:36:18.200Z,77.61
2023-05-25T00:41:20.940Z,77.36
2023-05-25T00:46:23.866Z,77.42
2023-05-25T00:51:26.462Z,77.32
2023-05-25T00:56:33.130Z,77.12
2023-05-25T01:01:40.295Z,77.01
2023-05-25T01:06:47.150Z,77.18
2023-05-25T01:11:51.374Z,77.38
2023-05-25T01:16:55.358Z,77.55
2023-05-25T01:22:08.102Z,77.28
2023-05-25T01:27:21.223Z,77.65
2023-05-25T01:32:25.004Z,78.40
2023-05-25T01:37:27.863Z,78.53
2023-05-25T01:42:31.858Z,78.62
2023-05-25T01:48:11.683Z,78.16
2023-05-25T01:53:23.907Z,77.91
2023-05-25T01:58:27.447Z,77.73
2023-05-25T02:03:29.333Z,77.40
2023-05-25T02:08:31.278Z,77.54
2023-05-25T02:13:34.956Z,77.53
2023-05-25T02:18:37.234Z,77.67
2023-05-25T02:23:39.057Z,77.78
2023-05-25T02:28:41.271Z,77.84
2023-05-25T02:33:43.087Z,77.73
2023-05-25T02:38:45.614Z,78.26
2023-05-25T02:43:48.144Z,78.25
2023-05-25T02:48:50.688Z,78.15
2023-05-25T02:53:53.309Z,77.94
2023-05-25T02:58:55.529Z,77.65
2023-05-25T03:04:15.616Z,77.46
2023-05-25T03:09:18.586Z,77.32
2023-05-25T03:14:22.565Z,77.24
2023-05-25T03:19:29.671Z,77.43
2023-05-25T03:24:31.493Z,77.05
2023-05-25T03:29:35.945Z,76.70
2023-05-25T03:34:38.396Z,76.55
2023-05-25T03:39:40.547Z,76.51
2023-05-25T03:44:42.898Z,77.70
2023-05-25T03:49:45.172Z,78.57
2023-05-25T03:54:48.055Z,79.02
2023-05-25T03:59:50.124Z,79.40
2023-05-25T04:07:13.464Z,82.79
2023-05-25T04:12:15.304Z,82.97
2023-05-25T04:17:19.096Z,83.03
2023-05-25T04:22:21.405Z,83.19
2023-05-25T04:27:23.268Z,83.01
2023-05-25T04:32:29.872Z,82.92
2023-05-25T04:38:12.452Z,82.95
2023-05-25T04:43:18.180Z,83.42
2023-05-25T04:48:21.615Z,83.08
2023-05-25T04:53:23.702Z,83.10
2023-05-25T04:58:26.191Z,83.03
2023-05-25T05:03:38.140Z,82.99
2023-05-25T05:08:41.802Z,83.06
2023-05-25T05:13:48.231Z,82.99
2023-05-25T05:18:50.660Z,82.98
2023-05-25T05:23:52.583Z,82.84
2023-05-25T05:28:54.663Z,82.69
2023-05-25T05:33:57.436Z,82.49
2023-05-25T05:39:01.059Z,82.30
2023-05-25T05:44:03.696Z,82.28
2023-05-25T05:49:05.458Z,82.09
2023-05-25T05:54:07.225Z,81.44
2023-05-25T05:59:11.806Z,81.00
2023-05-25T06:04:15.032Z,80.54
2023-05-25T06:09:17.806Z,80.50
2023-05-25T06:14:19.658Z,80.80
2023-05-25T06:19:21.529Z,80.82
2023-05-25T06:24:23.284Z,81.12
2023-05-25T06:29:25.246Z,81.40
2023-05-25T06:34:27.234Z,81.49
2023-05-25T06:39:29.212Z,81.39
2023-05-25T06:44:31.103Z,81.35
2023-05-25T06:49:36.734Z,80.92
2023-05-25T06:54:38.553Z,80.59
2023-05-25T06:59:40.468Z,80.03
2023-05-25T07:04:42.444Z,80.02
2023-05-25T07:09:44.334Z,80.02
2023-05-25T07:14:48.385Z,79.75
2023-05-25T07:19:50.123Z,79.00
2023-05-25T07:24:51.834Z,78.33
2023-05-25T07:29:53.921Z,77.71
2023-05-25T07:34:55.987Z,77.15
2023-05-25T07:39:57.983Z,77.40
2023-05-25T07:45:01.298Z,77.10
2023-05-25T07:50:03.244Z,76.80
2023-05-25T07:55:09.002Z,76.10
2023-05-25T08:00:12.782Z,76.26
2023-05-25T08:05:17.282Z,76.23
2023-05-25T08:10:19.407Z,76.18
2023-05-25T08:15:21.391Z,76.17
2023-05-25T08:20:25.237Z,76.18
2023-05-25T08:25:26.985Z,75.96
2023-05-25T08:30:29.264Z,75.13
2023-05-25T08:35:31.082Z,74.21
2023-05-25T08:40:32.810Z,72.66
2023-05-25T08:45:36.712Z,72.54
2023-05-25T08:50:41.366Z,72.49
2023-05-25T08:55:44.066Z,72.99
2023-05-25T09:00:55.811Z,73.68
2023-05-25T09:05:58.170Z,73.92
2023-05-25T09:11:02.422Z,73.79
2023-05-25T09:16:04.906Z,73.34
2023-05-25T09:21:06.615Z,73.83
2023-05-25T09:26:08.940Z,73.38
2023-05-25T09:31:10.973Z,72.32
2023-05-25T09:36:15.402Z,71.12
2023-05-25T09:41:17.213Z,71.07
2023-05-25T09:46:19.037Z,70.63
2023-05-25T09:51:21.758Z,70.39
2023-05-25T09:56:24.725Z,70.37
2023-05-25T10:01:27.358Z,69.64
2023-05-25T10:06:29.505Z,69.32
2023-05-25T10:11:33.920Z,68.61
2023-05-25T10:16:41.449Z,67.93
2023-05-25T10:22:14.082Z,68.38
2023-05-25T10:32:44.517Z,68.05
2023-05-25T10:37:47.732Z,67.22
2023-05-25T10:42:52.297Z,66.70
2023-05-25T10:47:54.134Z,66.95
2023-05-25T10:53:00.142Z,67.09
2023-05-25T10:58:10.482Z,66.82
2023-05-25T11:03:12.350Z,66.33
2023-05-25T11:08:17.764Z,67.38
2023-05-25T11:13:31.652Z,66.96
2023-05-25T11:18:41.637Z,66.03
2023-05-25T11:24:00.081Z,66.09
2023-05-25T11:29:15.938Z,65.94
2023-05-25T11:34:18.807Z,65.80
2023-05-25T11:39:23.406Z,65.43
2023-05-25T11:44:33.915Z,66.14
2023-05-25T11:49:42.040Z,66.63
2023-05-25T11:54:44.799Z,67.50
2023-05-25T12:00:02.054Z,68.84
2023-05-25T12:05:08.500Z,68.98
2023-05-25T12:10:13.078Z,68.57
2023-05-25T12:15:25.816Z,68.69
2023-05-25T12:20:27.776Z,68.50
2023-05-25T12:25:46.090Z,68.22
2023-05-25T12:30:52.041Z,68.12
2023-05-25T12:35:55.776Z,67.46
2023-05-25T12:41:07.967Z,67.25
2023-05-25T12:46:10.075Z,67.49
2023-05-25T12:51:12.310Z,67.57
2023-05-25T12:56:14.076Z,68.19
2023-05-25T13:01:16.092Z,68.73
2023-05-25T13:06:18.078Z,68.83
2023-05-25T13:11:19.795Z,68.88
2023-05-25T13:16:21.623Z,69.12
2023-05-25T13:21:23.617Z,68.83
2023-05-25T13:26:25.765Z,68.45
2023-05-25T13:31:27.821Z,68.00
2023-05-25T13:36:29.971Z,67.56
2023-05-25T13:41:31.761Z,67.28
2023-05-25T13:46:35.386Z,66.66
2023-05-25T13:51:38.356Z,66.30
2023-05-25T13:56:42.425Z,66.23
2023-05-25T14:01:44.356Z,65.82
2023-05-25T14:06:46.527Z,65.83
2023-05-25T14:11:48.500Z,65.68
2023-05-25T14:16:50.249Z,66.31
2023-05-25T14:22:11.220Z,66.44
2023-05-25T14:27:21.285Z,66.53
2023-05-25T14:32:22.997Z,66.70
2023-05-25T14:37:24.795Z,67.11
2023-05-25T14:42:27.147Z,67.29
2023-05-25T14:47:28.948Z,67.05
2023-05-25T14:52:30.800Z,66.40
2023-05-25T14:57:32.534Z,66.70
2023-05-25T15:02:34.368Z,67.09
2023-05-25T15:07:36.278Z,67.81
2023-05-25T15:12:38.054Z,68.32
2023-05-25T15:17:40.138Z,68.80
2023-05-25T15:22:42.036Z,68.94
2023-05-25T15:27:43.777Z,68.67
2023-05-25T15:32:45.534Z,68.29
2023-05-25T15:37:48.334Z,68.30
2023-05-25T15:42:50.368Z,68.41
2023-05-25T15:47:52.217Z,68.70
2023-05-25T15:52:54.073Z,69.23
2023-05-25T15:57:55.830Z,69.90
2023-05-25T16:02:58.283Z,70.59
2023-05-25T16:08:00.100Z,71.12
2023-05-25T16:13:01.887Z,71.25
2023-05-25T16:18:03.885Z,70.93
2023-05-25T16:23:06.451Z,70.82
2023-05-25T16:28:08.135Z,70.91
2023-05-25T16:33:09.944Z,71.03
2023-05-25T16:38:11.674Z,71.04
2023-05-25T16:43:13.381Z,71.12
2023-05-25T16:48:15.431Z,71.25
2023-05-25T16:53:17.285Z,71.33
2023-05-25T16:58:19.025Z,71.54
2023-05-25T17:03:20.734Z,71.65
2023-05-25T17:08:22.604Z,72.09
2023-05-25T17:13:24.291Z,72.61
2023-05-25T17:18:26.966Z,73.44
2023-05-25T17:23:28.803Z,73.80
2023-05-25T17:28:32.870Z,73.86
2023-05-25T17:33:34.639Z,74.17
2023-05-25T17:38:38.100Z,74.17
2023-05-25T17:43:39.800Z,74.33
2023-05-25T17:48:41.458Z,74.20
2023-05-25T17:53:43.150Z,74.09
2023-05-25T17:58:47.642Z,74.20
2023-05-25T18:03:53.953Z,74.53
2023-05-25T18:08:56.655Z,74.80
2023-05-25T18:13:58.446Z,74.95
2023-05-25T18:19:00.222Z,75.08
2023-05-25T18:24:01.923Z,75.02
2023-05-25T18:29:03.715Z,74.94
2023-05-25T18:34:06.918Z,74.81
2023-05-25T18:39:08.700Z,75.01
2023-05-25T18:44:10.492Z,75.26
2023-05-25T18:49:12.677Z,75.37
2023-05-25T18:54:14.397Z,75.46
2023-05-25T18:59:16.508Z,75.57
2023-05-25T19:04:18.421Z,75.77
2023-05-25T19:09:20.158Z,75.96
2023-05-25T19:14:21.890Z,76.67
2023-05-25T19:19:23.607Z,76.93
2023-05-25T19:24:25.311Z,76.94
2023-05-25T19:29:27.125Z,77.24
2023-05-25T19:34:28.863Z,77.96
2023-05-25T19:39:31.787Z,78.22
2023-05-25T19:44:33.468Z,78.70
2023-05-25T19:49:35.219Z,79.08
2023-05-25T19:54:38.078Z,79.58
2023-05-25T19:59:39.847Z,79.79
2023-05-25T20:04:41.520Z,79.94
2023-05-25T20:09:44.076Z,80.08
2023-05-25T20:14:45.754Z,79.95
2023-05-25T20:19:47.502Z,79.90
2023-05-25T20:24:50.167Z,79.87
2023-05-25T20:29:51.950Z,80.16
2023-05-25T20:34:53.646Z,80.48
2023-05-25T20:39:55.618Z,81.02
2023-05-25T20:45:00.165Z,81.34
2023-05-25T20:50:01.911Z,81.82
2023-05-25T20:55:03.940Z,81.99
2023-05-25T21:00:06.749Z,82.54
2023-05-25T21:05:09.063Z,82.51
2023-05-25T21:10:11.513Z,82.63
2023-05-25T21:15:19.118Z,82.71
2023-05-25T21:20:21.109Z,82.78
2023-05-25T21:25:22.998Z,82.68
2023-05-25T21:30:24.776Z,82.24
2023-05-25T21:35:26.597Z,82.11
2023-05-25T21:40:28.688Z,81.73
2023-05-25T21:45:31.240Z,81.30
2023-05-25T21:50:33.070Z,81.00
2023-05-25T21:55:54.837Z,80.89
2023-05-25T22:00:56.655Z,80.78
2023-05-25T22:05:58.565Z,80.75
2023-05-25T22:11:00.314Z,80.54
2023-05-25T22:16:02.077Z,80.63
2023-05-25T22:21:03.878Z,80.70
2023-05-25T22:26:05.828Z,80.52
2023-05-25T22:31:07.625Z,80.39
2023-05-25T22:36:09.376Z,80.01
2023-05-25T22:41:11.453Z,79.68
2023-05-25T22:46:13.242Z,79.40
2023-05-25T22:51:17.795Z,79.54
2023-05-25T22:56:19.504Z,79.78
2023-05-25T23:01:21.373Z,79.68
2023-05-25T23:06:23.198Z,79.63
2023-05-25T23:11:27.115Z,79.34
2023-05-25T23:16:29.507Z,79.31
2023-05-25T23:21:31.642Z,79.83
2023-05-25T23:26:33.686Z,80.43
2023-05-25T23:31:35.527Z,80.39
2023-05-25T23:36:37.339Z,80.38
2023-05-25T23:41:39.059Z,80.16
2023-05-25T23:46:41.865Z,79.83
2023-05-25T23:51:45.858Z,79.73
2023-05-25T23:56:49.544Z,80.04
